Time;durP1;ratioP1;P1;durP2;ratioP2;P2;SDS_P1;SDS_P2;PMS_P1;PMS_P2;Temp;Humidity;BMP_temperature;BMP_pressure;BME280_temperature;BME280_humidity;BME280_pressure;Samples;Min_cycle;Max_cycle;Signal;HPM_P1;HPM_P2
2024/04/03 00:00:05;;;;;;;1.20;1.00;;;;;;;9.71;62.41;98155.40;103481;1296;544995;-79
2024/04/03 00:03:42;;;;;;;1.00;0.90;;;;;;;9.76;62.32;98163.15;103276;1292;544934;-79
2024/04/03 00:07:19;;;;;;;1.80;1.30;;;;;;;9.79;62.40;98163.61;103537;1298;545759;-79
2024/04/03 00:10:57;;;;;;;2.30;1.00;;;;;;;9.84;62.43;98163.88;103957;1295;544955;-79
2024/04/03 00:14:34;;;;;;;1.40;1.00;;;;;;;9.89;62.39;98164.78;103528;1298;545434;-78
2024/04/03 00:18:12;;;;;;;2.50;1.00;;;;;;;9.93;62.46;98160.80;103652;1292;546141;-78
2024/04/03 00:21:50;;;;;;;2.60;1.10;;;;;;;9.97;62.44;98158.95;103243;1292;544978;-79
2024/04/03 00:25:26;;;;;;;3.20;1.20;;;;;;;10.00;62.40;98159.27;103380;1296;544892;-79
2024/04/03 00:29:08;;;;;;;1.90;1.20;;;;;;;10.05;62.59;98149.00;103833;1288;545002;-79
2024/04/03 00:32:45;;;;;;;1.40;1.00;;;;;;;10.06;62.55;98153.49;103903;1289;545195;-81
2024/04/03 00:36:23;;;;;;;1.70;1.20;;;;;;;10.07;62.66;98156.39;103721;1294;545114;-80
2024/04/03 00:40:00;;;;;;;2.20;1.10;;;;;;;10.12;62.70;98157.11;103675;1292;545251;-81
2024/04/03 00:43:36;;;;;;;3.00;1.00;;;;;;;10.14;62.75;98154.31;103706;1295;545051;-80
2024/04/03 00:47:18;;;;;;;3.10;1.10;;;;;;;10.17;62.61;98160.13;103626;1295;544958;-81
2024/04/03 00:50:56;;;;;;;2.20;1.10;;;;;;;10.19;62.61;98154.88;103757;1294;545423;-80
2024/04/03 00:54:33;;;;;;;3.50;0.90;;;;;;;10.22;62.72;98157.70;103687;1295;545006;-81
2024/04/03 00:58:11;;;;;;;1.80;0.90;;;;;;;10.23;62.63;98149.52;103683;1294;545110;-80
2024/04/03 01:01:48;;;;;;;2.10;0.90;;;;;;;10.24;62.59;98146.83;105192;1294;545050;-78
2024/04/03 01:05:35;;;;;;;2.30;1.20;;;;;;;10.27;62.65;98135.55;103990;1289;545604;-80
2024/04/03 01:09:11;;;;;;;2.50;1.20;;;;;;;10.29;62.60;98134.88;104009;1295;544999;-80
2024/04/03 01:12:54;;;;;;;3.30;1.50;;;;;;;10.29;62.66;98134.02;103909;1298;545470;-80
2024/04/03 01:16:30;;;;;;;2.00;1.10;;;;;;;10.28;62.62;98136.91;103778;1293;545770;-80
2024/04/03 01:20:08;;;;;;;2.40;1.10;;;;;;;10.24;62.64;98130.51;103447;1301;545012;-80
2024/04/03 01:23:53;;;;;;;2.10;1.10;;;;;;;10.18;62.53;98134.16;103267;1298;545897;-79
2024/04/03 01:27:24;;;;;;;3.20;1.30;;;;;;;10.15;62.63;98134.03;103513;1295;545449;-82
2024/04/03 01:31:01;;;;;;;2.80;1.40;;;;;;;10.16;62.70;98129.98;103933;1292;545124;-81
2024/04/03 01:34:39;;;;;;;2.50;1.10;;;;;;;10.15;62.76;98130.34;103681;1295;545727;-80
2024/04/03 01:38:18;;;;;;;1.60;1.20;;;;;;;10.13;62.75;98124.37;103438;1295;545044;-78
2024/04/03 01:41:54;;;;;;;5.90;1.30;;;;;;;10.11;62.85;98120.62;103428;1293;545013;-78
2024/04/03 01:45:32;;;;;;;3.00;1.30;;;;;;;10.10;62.70;98123.39;103644;1291;545068;-80
2024/04/03 01:49:09;;;;;;;2.40;1.30;;;;;;;10.06;62.83;98129.76;103503;1292;544994;-79
2024/04/03 01:52:47;;;;;;;4.30;1.30;;;;;;;10.04;62.89;98123.02;103651;1294;544929;-79
2024/04/03 01:56:23;;;;;;;2.40;1.30;;;;;;;10.01;62.91;98125.48;103389;1292;544974;-77
2024/04/03 02:00:07;;;;;;;2.90;1.00;;;;;;;9.98;62.99;98119.59;103220;1295;546048;-77
2024/04/03 02:03:42;;;;;;;3.30;1.30;;;;;;;9.94;63.03;98117.89;103747;1296;545105;-80
2024/04/03 02:07:20;;;;;;;2.60;1.30;;;;;;;9.91;63.08;98118.45;103544;1297;545933;-79
2024/04/03 02:10:58;;;;;;;2.40;1.40;;;;;;;9.87;63.04;98117.66;103969;1293;544958;-80
2024/04/03 02:14:35;;;;;;;2.40;1.50;;;;;;;9.84;63.09;98120.64;103737;1296;544994;-79
2024/04/03 02:18:11;;;;;;;2.60;1.40;;;;;;;9.80;63.25;98116.21;103822;1298;544972;-80
2024/04/03 02:21:52;;;;;;;4.90;2.00;;;;;;;9.76;63.20;98110.45;104006;1294;545128;-81
2024/04/03 02:25:28;;;;;;;5.10;1.80;;;;;;;9.74;63.21;98108.31;103662;1295;545075;-78
2024/04/03 02:29:13;;;;;;;3.20;1.60;;;;;;;9.71;63.18;98106.77;103162;1295;545612;-79
2024/04/03 02:32:48;;;;;;;4.30;1.30;;;;;;;9.68;63.34;98105.76;103206;1295;545700;-79
2024/04/03 02:36:25;;;;;;;2.20;1.30;;;;;;;9.64;63.41;98104.98;103421;1292;545039;-79
2024/04/03 02:40:03;;;;;;;2.20;1.40;;;;;;;9.61;63.38;98105.02;103409;1293;544978;-80
2024/04/03 02:43:40;;;;;;;3.40;1.60;;;;;;;9.58;63.58;98102.21;104112;1291;545148;-79
2024/04/03 02:47:17;;;;;;;2.80;1.60;;;;;;;9.58;63.62;98103.97;105160;1298;544732;-80
2024/04/03 02:51:06;;;;;;;4.50;1.30;;;;;;;9.61;63.57;98095.20;105377;1292;545823;-81
2024/04/03 02:54:36;;;;;;;2.00;1.20;;;;;;;9.64;63.65;98088.13;103958;1293;544912;-80
2024/04/03 02:58:14;;;;;;;3.60;1.50;;;;;;;9.66;63.51;98090.63;103804;1293;545035;-82
2024/04/03 03:01:52;;;;;;;7.20;1.60;;;;;;;9.69;63.52;98081.77;104350;1292;544984;-87
2024/04/03 03:05:30;;;;;;;3.50;1.40;;;;;;;9.75;63.62;98085.29;104918;1295;544920;-84
2024/04/03 03:09:07;;;;;;;4.00;1.60;;;;;;;9.78;63.60;98075.91;104401;1295;544941;-80
2024/04/03 03:12:45;;;;;;;2.70;1.40;;;;;;;9.85;63.47;98075.98;104123;1294;544973;-81
2024/04/03 03:16:23;;;;;;;3.90;1.60;;;;;;;9.91;63.53;98080.33;104425;1295;545904;-81
2024/04/03 03:20:00;;;;;;;3.90;1.60;;;;;;;9.96;63.57;98078.73;104191;1294;545664;-81
2024/04/03 03:23:38;;;;;;;6.50;1.60;;;;;;;9.99;63.69;98077.84;104073;1298;545043;-80
2024/04/03 03:27:16;;;;;;;4.30;1.40;;;;;;;10.01;63.66;98080.89;104164;1295;545617;-81
2024/04/03 03:30:54;;;;;;;4.60;1.30;;;;;;;10.03;63.74;98080.08;104216;1293;544934;-80
2024/04/03 03:34:31;;;;;;;3.50;1.40;;;;;;;10.04;63.67;98077.71;104224;1296;544912;-82
2024/04/03 03:38:09;;;;;;;4.00;1.30;;;;;;;10.05;63.51;98086.98;103614;1293;544927;-81
2024/04/03 03:41:47;;;;;;;6.00;1.70;;;;;;;10.08;63.59;98086.59;103439;1295;545681;-78
2024/04/03 03:45:22;;;;;;;3.10;1.40;;;;;;;10.14;63.63;98088.63;103228;1296;545050;-78
2024/04/03 03:52:43;;;;;;;2.90;1.40;;;;;;;10.23;63.49;98094.89;103164;1295;545043;-79
2024/04/03 03:56:19;;;;;;;4.20;1.90;;;;;;;10.26;63.41;98092.35;103971;1295;545644;-82
2024/04/03 03:59:57;;;;;;;3.10;1.30;;;;;;;10.26;63.57;98091.66;104586;1292;545845;-83
2024/04/03 04:03:36;;;;;;;4.30;1.40;;;;;;;10.24;63.56;98089.70;104604;1296;545056;-81
2024/04/03 04:07:22;;;;;;;6.30;1.60;;;;;;;10.21;63.39;98098.55;103967;1295;544922;-79
2024/04/03 04:10:56;;;;;;;5.10;1.80;;;;;;;10.16;63.67;98091.63;104094;1292;546461;-80
2024/04/03 04:14:47;;;;;;;3.60;1.30;;;;;;;10.13;63.45;98095.73;103677;1295;545413;-80
2024/04/03 04:18:11;;;;;;;5.00;1.40;;;;;;;10.10;63.59;98103.83;103404;1293;545442;-77
2024/04/03 04:21:50;;;;;;;4.50;1.90;;;;;;;10.09;63.56;98110.95;103515;1293;545587;-76
2024/04/03 04:26:02;;;;;;;3.70;1.70;;;;;;;10.10;63.75;98115.75;103192;1295;553379;-75
2024/04/03 04:39:36;;;;;;;7.00;2.10;;;;;;;10.29;63.57;98126.13;104265;1289;554722;-78
2024/04/03 04:42:25;;;;;;;4.30;1.50;;;;;;;10.40;63.65;98126.20;103366;1298;544983;-77
2024/04/03 04:46:04;;;;;;;4.80;1.50;;;;;;;10.43;63.56;98126.50;103478;1294;545028;-76
2024/04/03 04:49:39;;;;;;;3.70;1.50;;;;;;;10.55;63.85;98122.19;103386;1293;544917;-81
2024/04/03 04:53:21;;;;;;;5.70;2.20;;;;;;;10.96;67.41;98121.02;103703;1293;545173;-82
2024/04/03 04:57:01;;;;;;;5.40;1.90;;;;;;;11.14;64.88;98118.31;103618;1298;545028;-82
2024/04/03 05:00:36;;;;;;;5.50;2.40;;;;;;;11.14;64.97;98113.61;103479;1295;544821;-82
2024/04/03 05:04:14;;;;;;;6.30;2.10;;;;;;;11.29;64.48;98113.40;103781;1295;545067;-83
2024/04/03 05:07:51;;;;;;;5.70;1.70;;;;;;;11.50;63.96;98111.16;103937;1292;545023;-83
2024/04/03 05:11:29;;;;;;;4.00;1.60;;;;;;;11.79;63.78;98114.52;103561;1292;545515;-80
2024/04/03 05:15:08;;;;;;;5.50;1.80;;;;;;;12.21;65.06;98112.36;103256;1301;544915;-82
2024/04/03 05:18:45;;;;;;;3.80;1.60;;;;;;;12.65;63.81;98111.39;103206;1295;545063;-81
2024/04/03 05:22:22;;;;;;;2.80;1.40;;;;;;;13.02;63.70;98109.39;103447;1295;545502;-74
2024/04/03 05:26:05;;;;;;;7.00;1.40;;;;;;;13.35;62.97;98105.70;103128;1297;545937;-76
2024/04/03 05:29:36;;;;;;;5.60;1.90;;;;;;;13.65;62.79;98107.15;103100;1296;545111;-74
2024/04/03 05:33:18;;;;;;;4.20;1.40;;;;;;;13.88;62.70;98107.46;103068;1294;545451;-74
2024/04/03 05:36:53;;;;;;;2.80;1.20;;;;;;;14.23;62.37;98103.67;103785;1295;545691;-74
2024/04/03 05:40:41;;;;;;;3.50;1.40;;;;;;;14.57;61.88;98107.30;102979;1299;545046;-72
2024/04/03 05:44:19;;;;;;;3.80;1.50;;;;;;;14.93;61.79;98103.15;103080;1295;544991;-74
2024/04/03 05:47:58;;;;;;;6.20;1.60;;;;;;;15.25;61.55;98100.64;103149;1292;545857;-75
2024/04/03 05:51:32;;;;;;;5.80;1.50;;;;;;;15.53;61.20;98101.88;103309;1295;544986;-73
2024/04/03 05:55:15;;;;;;;4.60;1.50;;;;;;;15.81;61.00;98104.80;104044;1295;545002;-85
2024/04/03 05:58:52;;;;;;;6.10;1.50;;;;;;;15.86;60.21;98103.98;103756;1296;545026;-83
2024/04/03 06:02:33;;;;;;;5.00;1.50;;;;;;;15.86;60.71;98103.59;104348;1301;544956;-84
2024/04/03 06:06:14;;;;;;;4.20;1.60;;;;;;;16.05;60.09;98100.14;103958;1295;544725;-81
2024/04/03 06:09:51;;;;;;;5.50;1.50;;;;;;;16.25;59.71;98099.66;103041;1303;544978;-73
2024/04/03 06:13:30;;;;;;;5.30;1.30;;;;;;;16.53;59.57;98097.75;103110;1292;545109;-73
2024/04/03 06:17:09;;;;;;;4.00;1.30;;;;;;;16.69;58.89;98086.47;103255;1292;545018;-72
2024/04/03 06:20:50;;;;;;;6.60;2.30;;;;;;;16.80;58.63;98077.05;103962;1293;544958;-90
2024/04/03 06:24:33;;;;;;;8.50;2.60;;;;;;;16.86;57.87;98077.52;105272;1295;545185;-87
2024/04/03 06:28:14;;;;;;;6.50;2.60;;;;;;;16.91;57.43;98077.40;105210;1293;548822;-86
2024/04/03 06:32:01;;;;;;;4.50;1.80;;;;;;;16.80;56.67;98070.11;105161;1294;545779;-86
2024/04/03 06:35:44;;;;;;;8.70;3.20;;;;;;;16.68;56.75;98072.45;105748;1292;545005;-86
2024/04/03 06:39:19;;;;;;;9.20;1.50;;;;;;;16.70;56.29;98065.99;105726;1289;545017;-85
2024/04/03 06:43:03;;;;;;;5.10;1.40;;;;;;;16.62;55.91;98068.87;105098;1297;545702;-89
2024/04/03 06:46:47;;;;;;;5.50;1.40;;;;;;;16.46;55.61;98069.86;105112;1294;545620;-88
2024/04/03 06:50:28;;;;;;;4.70;1.40;;;;;;;16.33;55.37;98071.21;104995;1295;544845;-81
2024/04/03 06:54:03;;;;;;;10.80;1.30;;;;;;;16.33;55.17;98071.81;105017;1292;545592;-92
2024/04/03 06:57:39;;;;;;;9.70;2.00;;;;;;;16.35;55.05;98079.83;105032;1295;545013;-90
2024/04/03 07:01:16;;;;;;;6.70;1.10;;;;;;;16.35;54.65;98079.27;105085;1295;544937;-91
2024/04/03 07:04:54;;;;;;;5.30;1.50;;;;;;;16.30;54.67;98084.65;104820;1295;544997;-91
2024/04/03 07:08:40;;;;;;;7.10;2.00;;;;;;;16.32;54.44;98083.77;105435;1288;545027;-93
2024/04/03 07:12:10;;;;;;;5.60;1.40;;;;;;;16.28;54.11;98083.66;105082;1300;545679;-93
2024/04/03 07:15:48;;;;;;;4.30;1.80;;;;;;;16.20;53.96;98092.85;105172;1295;544987;-92
2024/04/03 07:19:30;;;;;;;13.80;1.60;;;;;;;16.11;53.78;98096.02;105590;1292;545008;-93
2024/04/03 07:23:08;;;;;;;5.80;1.50;;;;;;;15.81;53.58;98101.60;105111;1295;545002;-85
2024/04/03 07:26:47;;;;;;;5.10;1.30;;;;;;;15.68;53.28;98101.21;105033;1293;544989;-84
2024/04/03 07:30:23;;;;;;;5.60;1.40;;;;;;;15.48;53.39;98105.45;105200;1292;544939;-85
2024/04/03 07:33:59;;;;;;;4.00;1.30;;;;;;;15.38;53.10;98102.31;105763;1289;545547;-85
2024/04/03 07:37:44;;;;;;;4.80;1.30;;;;;;;15.28;52.95;98096.80;105192;1294;544774;-86
2024/04/03 07:41:31;;;;;;;4.00;1.00;;;;;;;15.25;53.24;98099.40;105114;1295;545143;-86
2024/04/03 07:45:12;;;;;;;3.30;1.20;;;;;;;15.25;52.98;98100.61;105031;1292;545458;-83
2024/04/03 07:48:50;;;;;;;2.90;1.20;;;;;;;15.17;52.68;98111.45;104996;1295;545316;-85
2024/04/03 07:52:28;;;;;;;3.50;0.90;;;;;;;15.18;52.43;98105.21;104835;1295;545542;-85
2024/04/03 07:56:07;;;;;;;4.30;0.90;;;;;;;15.20;52.71;98109.26;104996;1298;545052;-87
2024/04/03 07:59:42;;;;;;;2.40;1.00;;;;;;;15.16;52.09;98113.35;104337;1295;544979;-85
2024/04/03 08:03:23;;;;;;;4.20;1.30;;;;;;;15.17;52.26;98115.70;104876;1295;545991;-85
2024/04/03 08:07:00;;;;;;;2.80;1.10;;;;;;;15.27;52.19;98120.41;105046;1295;545107;-86
2024/04/03 08:10:41;;;;;;;4.80;1.80;;;;;;;15.39;51.99;98115.52;104884;1298;545012;-85
2024/04/03 08:14:19;;;;;;;2.80;1.20;;;;;;;15.45;51.71;98114.81;105918;1285;546562;-85
2024/04/03 08:17:57;;;;;;;4.00;1.20;;;;;;;15.39;51.27;98123.52;105853;1288;545016;-84
2024/04/03 08:21:36;;;;;;;2.90;0.90;;;;;;;15.43;50.96;98127.21;105766;1292;545053;-85
2024/04/03 08:25:11;;;;;;;4.30;0.90;;;;;;;15.43;50.75;98130.24;105565;1289;544818;-92
2024/04/03 08:29:01;;;;;;;2.80;1.00;;;;;;;15.39;50.64;98139.59;105100;1292;546163;-91
2024/04/03 08:32:31;;;;;;;2.20;0.80;;;;;;;15.54;50.70;98142.69;105129;1292;545343;-92
2024/04/03 08:36:13;;;;;;;2.90;0.80;;;;;;;15.74;50.39;98144.45;105076;1292;545057;-91
2024/04/03 08:39:55;;;;;;;4.50;0.90;;;;;;;15.86;50.17;98149.71;105028;1294;545648;-85
2024/04/03 08:43:26;;;;;;;3.30;0.70;;;;;;;15.99;49.96;98148.92;105089;1295;547071;-86
2024/04/03 08:47:02;;;;;;;2.10;0.80;;;;;;;16.23;49.82;98149.58;105060;1295;544999;-84
2024/04/03 08:50:37;;;;;;;10.80;1.30;;;;;;;16.37;49.59;98149.84;104926;1295;545676;-85
2024/04/03 08:54:17;;;;;;;10.30;1.30;;;;;;;16.49;49.55;98162.77;105202;1295;545052;-85
2024/04/03 08:57:57;;;;;;;8.30;1.00;;;;;;;16.68;49.62;98161.48;104863;1293;544984;-85
2024/04/03 09:01:37;;;;;;;2.30;1.00;;;;;;;16.81;49.23;98153.33;104864;1296;545041;-85
2024/04/03 09:05:18;;;;;;;7.30;1.10;;;;;;;16.76;49.18;98171.02;104709;1294;545244;-84
2024/04/03 09:08:57;;;;;;;3.90;0.90;;;;;;;16.74;49.38;98172.23;105037;1292;545085;-91
2024/04/03 09:12:41;;;;;;;7.90;1.10;;;;;;;16.88;49.48;98178.59;105022;1295;545186;-91
2024/04/03 09:16:12;;;;;;;8.40;1.30;;;;;;;16.99;49.15;98172.73;105220;1293;545317;-92
2024/04/03 09:19:51;;;;;;;3.70;0.90;;;;;;;16.93;49.02;98178.66;104957;1295;544990;-91
2024/04/03 09:23:31;;;;;;;7.40;1.20;;;;;;;17.02;49.17;98180.18;105181;1296;544872;-91
2024/04/03 09:27:13;;;;;;;7.00;2.00;;;;;;;17.05;48.83;98183.22;104854;1294;544973;-92
2024/04/03 09:30:51;;;;;;;3.30;1.00;;;;;;;17.07;48.80;98180.23;104875;1295;545900;-91
2024/04/03 09:34:31;;;;;;;5.10;1.30;;;;;;;17.21;48.50;98179.04;105058;1291;545004;-89
2024/04/03 09:38:32;;;;;;;4.10;1.20;;;;;;;17.15;48.68;98184.39;105353;1288;545173;-90
2024/04/03 09:41:45;;;;;;;6.00;1.50;;;;;;;17.23;48.72;98192.20;105101;1292;545677;-91
2024/04/03 09:45:23;;;;;;;8.20;1.40;;;;;;;17.33;48.63;98188.56;105023;1295;545050;-92
2024/04/03 09:48:59;;;;;;;10.60;1.90;;;;;;;17.32;48.16;98189.66;104935;1298;545918;-92
2024/04/03 09:52:42;;;;;;;9.10;1.50;;;;;;;17.28;48.35;98190.59;105216;1292;544975;-91
2024/04/03 09:56:24;;;;;;;3.60;1.40;;;;;;;17.45;48.27;98187.90;104776;1295;544716;-84
2024/04/03 09:59:57;;;;;;;6.00;1.30;;;;;;;17.48;48.20;98194.04;104851;1292;545057;-84
2024/04/03 10:03:36;;;;;;;4.40;1.30;;;;;;;17.57;48.16;98191.77;104698;1297;545008;-85
2024/04/03 10:07:16;;;;;;;4.30;1.20;;;;;;;17.63;48.05;98190.88;104773;1293;545563;-82
2024/04/03 10:10:51;;;;;;;7.00;1.30;;;;;;;17.69;47.95;98201.96;104869;1293;546147;-85
2024/04/03 10:14:35;;;;;;;7.40;1.40;;;;;;;17.75;47.90;98198.57;104887;1294;544748;-84
2024/04/03 10:18:05;;;;;;;6.30;1.40;;;;;;;17.76;47.58;98202.17;104767;1298;546160;-85
2024/04/03 10:21:42;;;;;;;10.60;1.70;;;;;;;17.78;47.72;98198.45;104735;1292;545003;-84
2024/04/03 10:25:20;;;;;;;9.80;1.90;;;;;;;17.83;47.59;98205.19;104614;1298;545003;-84
2024/04/03 10:29:03;;;;;;;8.60;2.50;;;;;;;17.59;47.51;98204.31;104670;1297;544982;-85
2024/04/03 10:32:45;;;;;;;7.90;2.60;;;;;;;17.56;47.51;98203.95;104936;1293;545566;-84
2024/04/03 10:36:24;;;;;;;8.10;3.00;;;;;;;17.63;47.61;98202.58;104381;1292;545268;-84
2024/04/03 10:39:58;;;;;;;13.10;2.10;;;;;;;17.75;47.57;98203.48;104753;1294;545962;-84
2024/04/03 10:43:38;;;;;;;7.00;2.20;;;;;;;17.86;47.15;98203.48;104757;1296;545310;-84
2024/04/03 10:47:20;;;;;;;6.40;1.90;;;;;;;17.95;47.43;98205.67;104695;1294;544996;-84
2024/04/03 10:50:57;;;;;;;5.60;1.40;;;;;;;18.14;47.15;98213.86;105223;1289;545006;-84
2024/04/03 10:54:35;;;;;;;7.80;1.50;;;;;;;18.08;47.01;98214.29;105441;1289;545597;-85
2024/04/03 10:58:13;;;;;;;5.10;1.60;;;;;;;18.36;47.22;98210.65;104669;1295;545046;-83
2024/04/03 11:01:51;;;;;;;6.00;1.50;;;;;;;18.60;46.81;98209.12;104684;1295;544933;-84
2024/04/03 11:05:36;;;;;;;2.90;1.10;;;;;;;18.59;46.78;98213.11;104669;1292;545474;-84
2024/04/03 11:09:11;;;;;;;8.20;1.70;;;;;;;18.75;46.71;98213.42;104810;1292;545035;-85
2024/04/03 11:13:06;;;;;;;9.10;1.20;;;;;;;18.72;46.43;98211.77;104949;1295;545372;-84
2024/04/03 11:16:24;;;;;;;20.20;2.60;;;;;;;18.78;46.34;98209.98;104776;1295;545018;-84
2024/04/03 11:20:06;;;;;;;4.50;1.20;;;;;;;18.83;46.29;98214.40;104779;1293;545393;-84
2024/04/03 11:23:43;;;;;;;5.80;2.00;;;;;;;18.89;46.33;98209.40;104695;1294;545124;-84
2024/04/03 11:27:19;;;;;;;11.10;2.40;;;;;;;18.83;46.03;98210.73;105067;1293;545986;-83
2024/04/03 11:31:01;;;;;;;4.90;1.40;;;;;;;18.86;46.30;98208.27;104922;1293;545025;-84
2024/04/03 11:34:39;;;;;;;5.10;1.70;;;;;;;19.09;46.10;98206.27;104746;1292;545144;-84
2024/04/03 11:38:16;;;;;;;14.60;1.70;;;;;;;19.01;45.64;98210.67;104786;1293;545092;-84
2024/04/03 11:41:57;;;;;;;5.00;1.40;;;;;;;18.66;45.71;98213.05;104958;1292;545574;-84
2024/04/03 11:45:32;;;;;;;5.90;1.50;;;;;;;18.62;45.96;98218.73;104891;1294;545361;-85
2024/04/03 11:49:11;;;;;;;8.50;1.50;;;;;;;18.67;45.63;98219.27;104969;1295;545086;-84
2024/04/03 11:52:47;;;;;;;8.60;1.70;;;;;;;18.57;45.77;98225.02;105433;1294;545271;-83
2024/04/03 11:56:29;;;;;;;7.30;1.40;;;;;;;18.24;45.65;98227.99;105597;1292;545427;-85
2024/04/03 12:00:02;;;;;;;6.50;1.70;;;;;;;18.09;45.85;98233.24;105764;1293;545558;-85
2024/04/03 12:03:50;;;;;;;5.40;1.20;;;;;;;17.74;45.78;98239.33;105572;1294;544862;-85
2024/04/03 12:07:32;;;;;;;9.50;1.70;;;;;;;17.61;45.94;98243.13;104994;1293;545583;-84
2024/04/03 12:11:10;;;;;;;9.80;2.20;;;;;;;17.50;45.94;98257.65;104333;1293;545514;-92
2024/04/03 12:14:45;;;;;;;9.00;1.50;;;;;;;17.51;45.99;98253.16;104737;1295;546131;-91
2024/04/03 12:22:05;;;;;;;13.80;3.40;;;;;;;17.40;46.13;98265.94;104618;1296;544949;-91
2024/04/03 12:25:44;;;;;;;9.90;3.70;;;;;;;17.27;45.97;98258.45;103826;1296;544987;-79
2024/04/03 12:29:19;;;;;;;6.00;1.80;;;;;;;17.04;46.21;98264.48;103871;1295;545487;-77
2024/04/03 12:33:00;;;;;;;6.00;2.00;;;;;;;17.15;46.39;98257.80;103558;1292;545831;-79
2024/04/03 12:36:37;;;;;;;7.00;3.90;;;;;;;17.27;46.30;98258.21;103810;1295;544914;-78
2024/04/03 12:40:39;;;;;;;8.80;2.10;;;;;;;17.38;46.38;98261.88;103683;1293;545047;-78
2024/04/03 12:44:16;;;;;;;5.70;2.30;;;;;;;17.54;46.31;98259.83;103470;1301;544982;-78
2024/04/03 12:58:20;;;;;;;8.00;3.50;;;;;;;18.00;46.25;98256.55;104562;1288;553789;-80
2024/04/03 13:01:10;;;;;;;5.60;3.40;;;;;;;18.09;46.09;98258.10;104235;1289;545864;-78
2024/04/03 13:04:47;;;;;;;10.00;5.70;;;;;;;17.94;46.00;98257.90;103859;1295;544947;-79
2024/04/03 13:08:23;;;;;;;5.80;2.20;;;;;;;17.88;46.31;98267.92;103538;1297;545081;-79
2024/04/03 13:12:05;;;;;;;4.00;1.50;;;;;;;18.03;46.42;98268.13;103396;1293;545722;-79
2024/04/03 13:15:43;;;;;;;6.80;2.40;;;;;;;18.11;46.29;98272.23;103570;1292;545907;-78
2024/04/03 13:19:20;;;;;;;3.90;1.80;;;;;;;18.22;46.31;98269.69;103598;1291;545121;-77
2024/04/03 13:23:04;;;;;;;7.30;2.80;;;;;;;18.28;46.33;98276.05;103450;1296;549237;-79
2024/04/03 13:26:36;;;;;;;15.70;6.60;;;;;;;18.31;46.29;98279.14;103531;1298;545981;-79
2024/04/03 13:30:14;;;;;;;15.60;6.40;;;;;;;18.29;46.27;98277.14;103535;1296;546030;-78
2024/04/03 13:33:49;;;;;;;8.70;3.40;;;;;;;18.18;46.18;98281.96;103852;1292;545040;-78
2024/04/03 13:37:31;;;;;;;15.10;5.80;;;;;;;18.13;46.13;98283.18;104079;1296;545340;-80
2024/04/03 13:41:08;;;;;;;12.80;3.00;;;;;;;18.02;46.25;98288.94;104158;1298;544963;-81
2024/04/03 13:44:50;;;;;;;14.90;6.70;;;;;;;17.92;46.20;98290.41;104363;1289;546036;-81
2024/04/03 13:48:26;;;;;;;7.40;2.60;;;;;;;17.82;46.29;98291.61;104574;1289;544975;-82
2024/04/03 13:52:08;;;;;;;10.20;3.60;;;;;;;17.57;46.34;98296.29;104204;1297;545025;-81
2024/04/03 13:56:00;;;;;;;11.40;3.60;;;;;;;17.46;46.34;98298.89;104413;1295;544935;-91
2024/04/03 13:59:27;;;;;;;12.10;4.30;;;;;;;17.41;46.47;98299.40;104499;1293;544930;-89
2024/04/03 14:03:04;;;;;;;8.50;2.20;;;;;;;17.30;46.57;98299.88;105263;1294;545001;-91
2024/04/03 14:06:46;;;;;;;5.10;1.30;;;;;;;17.13;46.47;98301.34;105125;1295;545455;-92
2024/04/03 14:10:21;;;;;;;5.50;1.30;;;;;;;16.86;46.52;98299.20;104965;1296;545346;-90
2024/04/03 14:14:28;;;;;;;4.70;1.30;;;;;;;16.70;46.64;98300.39;105334;1295;549114;-90
2024/04/03 14:17:39;;;;;;;6.10;1.30;;;;;;;16.43;46.60;98302.46;104648;1295;544900;-90
2024/04/03 14:21:20;;;;;;;12.10;2.10;;;;;;;16.31;46.81;98300.38;104677;1294;545500;-91
2024/04/03 14:24:58;;;;;;;8.10;2.00;;;;;;;16.20;46.96;98310.56;104641;1292;545163;-90
2024/04/03 14:28:36;;;;;;;5.60;1.60;;;;;;;16.17;47.12;98311.38;104731;1293;545023;-91
2024/04/03 14:32:13;;;;;;;4.70;1.20;;;;;;;16.05;47.16;98314.86;104523;1299;545027;-92
2024/04/03 14:35:52;;;;;;;3.10;1.80;;;;;;;15.89;47.35;98317.95;105005;1289;545022;-92
2024/04/03 15:17:42;;;;;;;6.50;3.70;;;;;;;17.10;47.82;98325.61;106095;1288;554819;-88
2024/04/03 15:20:24;;;;;;;5.40;3.80;;;;;;;17.14;47.96;98333.58;105017;1293;545017;-85
2024/04/03 15:24:04;;;;;;;5.70;2.70;;;;;;;17.07;47.87;98330.86;104993;1295;545178;-88
2024/04/03 15:27:37;;;;;;;6.80;3.70;;;;;;;17.05;48.08;98329.46;105083;1292;545957;-87
2024/04/03 15:31:19;;;;;;;7.50;4.30;;;;;;;17.06;48.28;98332.01;105475;1292;545643;-87
2024/04/03 15:35:09;;;;;;;6.20;2.70;;;;;;;17.05;48.15;98333.02;105260;1292;544767;-82
2024/04/03 15:38:34;;;;;;;4.40;2.30;;;;;;;16.98;48.16;98337.73;104874;1295;545043;-81
2024/04/03 15:42:19;;;;;;;7.50;3.20;;;;;;;16.88;48.24;98340.37;105370;1292;544980;-82
2024/04/03 15:56:25;;;;;;;8.30;3.80;;;;;;;16.92;48.37;98345.50;106088;1285;554577;-84
2024/04/03 15:59:13;;;;;;;7.40;4.50;;;;;;;16.85;48.47;98349.36;105052;1292;545167;-84
2024/04/03 16:02:54;;;;;;;5.20;3.50;;;;;;;16.72;48.46;98348.11;104976;1295;544659;-84
2024/04/03 16:06:41;;;;;;;9.20;5.80;;;;;;;16.60;48.57;98355.25;105115;1291;545004;-85
2024/04/03 16:10:13;;;;;;;12.40;8.10;;;;;;;16.53;48.63;98358.52;104893;1295;545086;-80
2024/04/03 16:13:51;;;;;;;10.00;5.50;;;;;;;16.44;48.66;98358.65;104348;1295;545032;-81
2024/04/03 16:17:29;;;;;;;24.40;16.60;;;;;;;16.36;48.75;98357.77;104356;1298;545012;-82
2024/04/03 16:21:07;;;;;;;17.70;10.50;;;;;;;16.30;48.83;98360.55;104401;1292;545429;-82
2024/04/03 16:24:45;;;;;;;27.70;17.40;;;;;;;16.24;48.96;98363.77;104241;1292;544969;-80
2024/04/03 16:28:26;;;;;;;23.10;14.10;;;;;;;16.16;49.11;98365.22;104231;1295;545132;-80
2024/04/03 16:31:57;;;;;;;17.50;11.30;;;;;;;16.04;49.29;98370.53;104119;1295;544885;-80
2024/04/03 16:35:39;;;;;;;10.70;7.20;;;;;;;15.92;49.55;98367.77;103875;1294;545078;-79
2024/04/03 16:39:17;;;;;;;9.60;5.30;;;;;;;15.77;49.70;98374.30;104081;1292;545520;-78
2024/04/03 16:43:07;;;;;;;13.80;10.10;;;;;;;15.68;49.90;98376.27;103730;1292;549413;-79
2024/04/03 16:46:33;;;;;;;9.30;7.50;;;;;;;15.60;49.91;98378.77;103861;1295;544903;-80
2024/04/03 16:50:10;;;;;;;7.30;5.60;;;;;;;15.49;50.03;98382.54;103414;1294;545293;-80
2024/04/03 16:53:46;;;;;;;6.70;4.50;;;;;;;15.40;50.10;98389.20;103506;1297;545051;-79
2024/04/03 16:57:27;;;;;;;14.30;7.10;;;;;;;15.31;50.16;98394.20;104599;1292;545368;-83
2024/04/03 17:01:11;;;;;;;11.30;5.90;;;;;;;15.18;50.15;98389.77;104557;1297;545075;-83
2024/04/03 17:04:43;;;;;;;9.00;5.50;;;;;;;15.10;50.36;98396.61;104766;1291;545023;-82
2024/04/03 17:08:21;;;;;;;10.30;5.10;;;;;;;15.00;50.35;98402.79;105078;1285;545466;-83
2024/04/03 17:12:13;;;;;;;6.30;4.30;;;;;;;14.90;50.35;98410.89;103968;1293;546066;-83
2024/04/03 17:15:36;;;;;;;4.00;3.30;;;;;;;14.83;50.58;98413.94;104084;1293;545318;-81
2024/04/03 17:19:11;;;;;;;7.90;3.50;;;;;;;14.79;50.70;98414.29;104387;1295;545176;-81
2024/04/03 17:22:53;;;;;;;9.90;6.00;;;;;;;14.74;50.90;98422.79;104109;1294;544944;-79
2024/04/03 17:26:29;;;;;;;14.80;7.80;;;;;;;14.69;51.05;98427.62;104535;1301;545751;-82
2024/04/03 17:30:10;;;;;;;8.80;4.90;;;;;;;14.64;51.23;98429.83;104744;1294;545065;-83
2024/04/03 17:33:48;;;;;;;7.40;5.20;;;;;;;14.60;51.23;98437.08;104540;1295;545078;-83
2024/04/03 17:37:27;;;;;;;7.20;4.80;;;;;;;14.54;51.18;98445.38;104060;1295;545059;-80
2024/04/03 17:41:15;;;;;;;8.40;3.80;;;;;;;14.47;51.42;98448.19;103921;1296;549325;-80
2024/04/03 17:44:41;;;;;;;12.30;6.80;;;;;;;14.41;51.41;98450.64;103787;1293;544961;-81
2024/04/03 17:48:19;;;;;;;8.80;5.70;;;;;;;14.36;51.57;98450.00;103975;1295;545013;-80
2024/04/03 17:51:58;;;;;;;23.20;14.40;;;;;;;14.31;51.62;98454.41;104005;1295;544971;-82
2024/04/03 17:55:37;;;;;;;32.40;22.30;;;;;;;14.26;51.61;98460.51;103836;1294;544994;-82